METAR Data

Data at: 1848 UTC 21 Nov 2018

METAR for:KSFM (Sanford Rgnl, ME, US)
Text:KSFM 211756Z AUTO 22012KT 10SM FEW041 01/M02 A2981 RMK AO2 SLP100 6//// T00111017 10011 21072 56041 FZRANO PNO $
Temperature: 1.1°C ( 34°F)
Dewpoint: -1.7°C ( 29°F) [RH = 82%]
Pressure (altimeter):29.81 inches Hg (1009.6 mb) [Sea level pressure: 1010.0 mb]
Winds:from the SW (220 degrees) at 14 MPH (12 knots; 6.2 m/s)
Visibility:10 or more sm (16+ km)
Ceiling:at least 12,000 feet AGL
Clouds: few clouds at 4100 feet AGL
QC Flag:automated observation with no human augmentation; SOME DATA ABOVE MAY BE INACCURATE!!!"$" is an indication the sensor requires maintenance.